createdAt,value
2019-01-16T00:01:28.772Z,3.70
2019-01-16T00:04:14.108Z,4.57
2019-01-16T00:07:00.472Z,3.93
2019-01-16T00:09:39.010Z,3.90
2019-01-16T00:12:25.302Z,5.13
2019-01-16T00:15:04.865Z,4.37
2019-01-16T00:17:50.963Z,3.97
2019-01-16T00:20:32.447Z,3.87
2019-01-16T00:23:18.773Z,3.60
2019-01-16T00:26:06.409Z,3.33
2019-01-16T00:28:54.014Z,3.27
2019-01-16T00:31:33.411Z,3.63
2019-01-16T00:34:23.646Z,3.23
2019-01-16T00:37:08.693Z,2.93
2019-01-16T00:39:58.917Z,3.23
2019-01-16T00:42:44.978Z,3.20
2019-01-16T00:45:32.571Z,2.90
2019-01-16T00:48:24.518Z,3.10
2019-01-16T00:51:01.229Z,3.40
2019-01-16T00:53:51.638Z,3.00
2019-01-16T00:56:31.953Z,3.07
2019-01-16T00:59:17.715Z,3.43
2019-01-16T01:02:11.189Z,3.40
2019-01-16T01:04:57.133Z,3.30
2019-01-16T01:07:44.725Z,3.70
2019-01-16T01:10:23.227Z,3.70
2019-01-16T01:13:02.066Z,3.33
2019-01-16T01:15:41.336Z,3.37
2019-01-16T01:18:32.188Z,4.23
2019-01-16T01:21:15.313Z,3.90
2019-01-16T01:24:08.694Z,4.23
2019-01-16T01:26:54.487Z,4.03
2019-01-16T01:29:45.623Z,4.40
2019-01-16T01:32:31.507Z,4.27
2019-01-16T01:35:19.146Z,4.33
2019-01-16T01:38:05.304Z,4.70
2019-01-16T01:40:51.118Z,4.47
2019-01-16T01:43:47.750Z,4.80
2019-01-16T01:46:33.850Z,4.77
2019-01-16T01:49:21.196Z,5.20
2019-01-16T01:52:11.586Z,4.53
2019-01-16T01:54:50.050Z,4.40
2019-01-16T01:57:30.810Z,4.43
2019-01-16T02:00:14.250Z,5.47
2019-01-16T02:03:13.737Z,3.20
2019-01-16T02:06:10.374Z,3.10
2019-01-16T02:08:56.286Z,3.07
2019-01-16T02:11:49.612Z,3.00
2019-01-16T02:14:37.277Z,2.50
2019-01-16T02:17:29.597Z,3.20
2019-01-16T02:20:20.050Z,4.00
2019-01-16T02:23:10.728Z,4.00
2019-01-16T02:25:52.660Z,4.27
2019-01-16T02:28:40.309Z,5.93
2019-01-16T02:31:33.560Z,7.77
2019-01-16T02:34:28.783Z,9.73
2019-01-16T02:37:16.977Z,10.83
2019-01-16T02:40:13.514Z,12.63
2019-01-16T02:43:06.712Z,12.33
2019-01-16T02:45:53.108Z,14.17
2019-01-16T02:48:55.818Z,15.03
2019-01-16T02:51:44.817Z,14.77
2019-01-16T02:54:35.108Z,15.17
2019-01-16T02:57:15.934Z,14.73
2019-01-16T03:00:12.073Z,16.40
2019-01-16T03:03:17.662Z,16.30
2019-01-16T03:06:08.022Z,16.03
2019-01-16T03:08:54.603Z,16.17
2019-01-16T03:11:43.450Z,17.83
2019-01-16T03:14:31.076Z,16.20
2019-01-16T03:17:11.041Z,16.00
2019-01-16T03:26:24.873Z,17.47
2019-01-16T03:29:09.109Z,16.97
2019-01-16T03:32:03.554Z,17.63
2019-01-16T03:34:49.485Z,16.33
2019-01-16T03:37:29.567Z,17.23
2019-01-16T03:40:23.026Z,17.60
2019-01-16T03:43:19.559Z,18.20
2019-01-16T03:46:07.143Z,17.97
2019-01-16T03:49:00.426Z,17.43
2019-01-16T03:51:48.010Z,17.20
2019-01-16T03:54:32.996Z,18.50
2019-01-16T03:57:09.414Z,18.63
2019-01-16T03:59:55.347Z,17.10
2019-01-16T04:02:41.447Z,17.17
2019-01-16T04:05:19.524Z,16.37
2019-01-16T04:08:05.254Z,16.77
2019-01-16T04:10:51.364Z,17.37
2019-01-16T04:13:44.667Z,17.37
2019-01-16T04:16:30.791Z,18.60
2019-01-16T04:19:24.072Z,20.67
2019-01-16T04:22:08.879Z,19.27
2019-01-16T04:24:55.053Z,20.90
2019-01-16T04:27:34.521Z,21.53
2019-01-16T04:30:20.997Z,21.20
2019-01-16T04:33:17.835Z,21.40
2019-01-16T04:35:58.693Z,20.77
2019-01-16T04:38:52.203Z,22.67
2019-01-16T04:41:39.791Z,22.23
2019-01-16T04:44:30.402Z,24.23
2019-01-16T04:47:20.894Z,25.47
2019-01-16T04:50:14.242Z,25.80
2019-01-16T04:52:58.572Z,27.10
2019-01-16T04:55:57.448Z,25.17
2019-01-16T04:59:02.711Z,24.87
2019-01-16T05:01:56.232Z,25.27
2019-01-16T05:04:39.415Z,23.53
2019-01-16T05:07:32.632Z,23.10
2019-01-16T05:10:32.168Z,21.87
2019-01-16T05:13:22.339Z,24.30
2019-01-16T05:16:03.910Z,22.60
2019-01-16T05:18:55.076Z,23.63
2019-01-16T05:22:00.502Z,21.97
2019-01-16T05:24:50.689Z,22.83
2019-01-16T05:27:36.875Z,22.17
2019-01-16T05:30:28.627Z,22.83
2019-01-16T05:33:05.372Z,23.70
2019-01-16T05:35:55.629Z,22.77
2019-01-16T05:38:38.563Z,22.73
2019-01-16T05:41:24.807Z,23.97
2019-01-16T05:44:18.107Z,23.47
2019-01-16T05:47:11.823Z,24.73
2019-01-16T05:49:59.414Z,25.33
2019-01-16T05:52:58.661Z,25.33
2019-01-16T05:55:37.872Z,24.30
2019-01-16T05:58:16.938Z,24.67
2019-01-16T06:01:14.572Z,26.13
2019-01-16T06:04:00.623Z,25.73
2019-01-16T06:06:46.343Z,25.57
2019-01-16T06:09:26.192Z,26.20
2019-01-16T06:12:12.454Z,23.53
2019-01-16T06:15:00.240Z,25.07
2019-01-16T06:17:56.768Z,24.50
2019-01-16T06:20:45.054Z,24.73
2019-01-16T06:23:30.614Z,24.07
2019-01-16T06:26:20.754Z,25.50
2019-01-16T06:29:11.506Z,23.10
2019-01-16T06:31:59.126Z,24.70
2019-01-16T06:34:46.719Z,23.70
2019-01-16T06:37:34.339Z,22.97
2019-01-16T06:40:20.515Z,23.60
2019-01-16T06:42:58.452Z,23.53
2019-01-16T06:45:37.216Z,21.70
2019-01-16T06:48:27.472Z,23.40
2019-01-16T06:51:15.083Z,21.90
2019-01-16T06:54:05.638Z,21.87
2019-01-16T06:56:53.259Z,21.00
2019-01-16T06:59:39.463Z,20.13
2019-01-16T07:02:30.921Z,21.23
2019-01-16T07:05:18.624Z,20.87
2019-01-16T07:08:04.699Z,19.57
2019-01-16T07:10:51.534Z,19.93
2019-01-16T07:13:39.178Z,18.70
2019-01-16T07:16:18.547Z,18.20
2019-01-16T07:19:04.602Z,18.90
2019-01-16T07:21:54.031Z,17.03
2019-01-16T07:24:59.442Z,16.70
2019-01-16T07:27:53.389Z,16.47
2019-01-16T07:30:39.105Z,17.07
2019-01-16T07:33:25.179Z,16.50
2019-01-16T07:36:21.606Z,15.57
2019-01-16T07:39:01.094Z,15.00
2019-01-16T07:41:54.295Z,15.00
2019-01-16T07:44:53.633Z,14.73
2019-01-16T07:47:38.682Z,14.80
2019-01-16T07:50:27.213Z,14.97
2019-01-16T07:53:20.610Z,14.20
2019-01-16T07:56:04.498Z,13.47
2019-01-16T07:58:50.250Z,13.67
2019-01-16T08:01:32.898Z,13.90
2019-01-16T08:04:19.097Z,12.77
2019-01-16T08:07:18.264Z,12.03
2019-01-16T08:10:11.842Z,13.17
2019-01-16T08:13:17.425Z,13.27
2019-01-16T08:16:03.430Z,12.90
2019-01-16T08:18:56.793Z,13.30
2019-01-16T08:21:42.802Z,12.30
2019-01-16T08:24:27.122Z,14.20
2019-01-16T08:27:08.603Z,12.73
2019-01-16T08:29:48.452Z,14.20
2019-01-16T08:32:25.938Z,14.17
2019-01-16T08:35:19.050Z,13.80
2019-01-16T08:38:05.162Z,12.93
2019-01-16T08:41:01.693Z,14.07
2019-01-16T08:43:47.834Z,13.93
2019-01-16T08:46:35.436Z,12.80
2019-01-16T08:49:40.829Z,12.93
2019-01-16T08:52:26.698Z,13.10
2019-01-16T08:55:16.855Z,13.17
2019-01-16T08:58:06.967Z,13.53
2019-01-16T09:00:52.255Z,13.87
2019-01-16T09:03:54.792Z,12.87
2019-01-16T09:06:33.185Z,12.67
2019-01-16T09:09:18.913Z,13.27
2019-01-16T09:12:05.133Z,12.67
2019-01-16T09:14:55.600Z,13.07
2019-01-16T09:17:43.216Z,13.00
2019-01-16T09:20:23.668Z,12.53
2019-01-16T09:23:15.098Z,11.90
2019-01-16T09:26:02.738Z,11.67
2019-01-16T09:28:53.207Z,11.23
2019-01-16T09:31:46.434Z,11.67
2019-01-16T09:34:34.049Z,11.70
2019-01-16T09:37:21.650Z,10.97
2019-01-16T09:40:07.538Z,11.50
2019-01-16T09:42:47.827Z,11.13
2019-01-16T09:45:33.725Z,11.57
2019-01-16T09:48:19.878Z,11.27
2019-01-16T09:51:19.463Z,12.70
2019-01-16T09:54:05.519Z,11.97
2019-01-16T09:57:00.598Z,11.27
2019-01-16T09:59:46.720Z,11.20
2019-01-16T10:02:28.734Z,12.07
2019-01-16T10:05:20.652Z,11.27
2019-01-16T10:08:11.482Z,11.13
2019-01-16T10:11:01.271Z,11.37
2019-01-16T10:13:48.886Z,10.23
2019-01-16T10:16:36.596Z,11.97
2019-01-16T10:19:38.882Z,11.70
2019-01-16T10:22:29.060Z,11.53
2019-01-16T10:25:22.574Z,12.10
2019-01-16T10:28:09.392Z,11.90
2019-01-16T10:31:05.618Z,12.53
2019-01-16T10:34:04.938Z,12.10
2019-01-16T10:36:51.025Z,12.33
2019-01-16T10:39:38.653Z,11.67
2019-01-16T10:42:21.220Z,12.37
2019-01-16T10:44:54.214Z,12.17
2019-01-16T10:47:40.000Z,11.37
2019-01-16T10:50:26.482Z,12.63
2019-01-16T10:53:12.226Z,11.83
2019-01-16T10:55:51.268Z,12.53
2019-01-16T10:58:38.933Z,12.80
2019-01-16T11:01:35.631Z,13.10
2019-01-16T11:04:21.726Z,12.67
2019-01-16T11:07:12.023Z,13.63
2019-01-16T11:09:57.972Z,13.40
2019-01-16T11:12:51.175Z,12.97
2019-01-16T11:15:31.983Z,13.53
2019-01-16T11:18:28.786Z,14.23
2019-01-16T11:21:11.117Z,14.03
2019-01-16T11:23:56.754Z,13.33
2019-01-16T11:26:56.507Z,13.57
2019-01-16T11:29:55.949Z,13.67
2019-01-16T11:32:43.565Z,14.17
2019-01-16T11:35:43.180Z,13.40
2019-01-16T11:38:29.219Z,13.30
2019-01-16T11:41:15.134Z,12.50
2019-01-16T11:44:10.840Z,13.73
2019-01-16T11:47:04.369Z,14.33
2019-01-16T11:49:50.651Z,14.30
2019-01-16T11:52:36.662Z,14.63
2019-01-16T11:55:24.423Z,14.23
2019-01-16T11:58:21.062Z,14.27
2019-01-16T12:01:07.217Z,16.23
2019-01-16T12:03:53.239Z,14.93
2019-01-16T12:06:39.101Z,14.70
2019-01-16T12:09:32.271Z,15.70
2019-01-16T12:12:17.795Z,14.90
2019-01-16T12:15:00.750Z,15.00
2019-01-16T12:17:50.808Z,15.20
2019-01-16T12:20:26.277Z,14.30
2019-01-16T12:23:19.860Z,14.60
2019-01-16T12:25:57.965Z,15.00
2019-01-16T12:28:44.498Z,16.07
2019-01-16T12:31:41.035Z,15.17
2019-01-16T12:34:34.205Z,15.17
2019-01-16T12:37:27.853Z,15.20
2019-01-16T12:40:12.659Z,14.93
2019-01-16T12:43:00.275Z,15.10
2019-01-16T12:46:02.877Z,16.10
2019-01-16T12:48:48.903Z,14.97
2019-01-16T12:51:36.550Z,15.07
2019-01-16T12:54:24.145Z,14.83
2019-01-16T12:57:14.487Z,14.77
2019-01-16T12:59:52.275Z,14.70
2019-01-16T13:02:37.414Z,15.40
2019-01-16T13:05:19.330Z,15.13
2019-01-16T13:08:21.982Z,14.83
2019-01-16T13:11:07.830Z,15.07
2019-01-16T13:13:55.433Z,16.67
2019-01-16T13:16:32.815Z,15.87
2019-01-16T13:19:23.352Z,17.07
2019-01-16T13:22:10.226Z,18.23
2019-01-16T13:24:57.834Z,18.10
2019-01-16T13:27:43.694Z,19.30
2019-01-16T13:30:44.703Z,17.83
2019-01-16T13:33:37.966Z,19.03
2019-01-16T13:36:31.681Z,20.37
2019-01-16T13:39:21.790Z,17.70
2019-01-16T13:41:59.866Z,19.17
2019-01-16T13:44:51.603Z,17.60
2019-01-16T13:47:41.874Z,18.10
2019-01-16T13:50:32.584Z,20.13
2019-01-16T13:53:22.969Z,19.10
2019-01-16T13:56:09.083Z,19.43
2019-01-16T13:58:55.228Z,19.27
2019-01-16T14:01:34.282Z,18.77
2019-01-16T14:04:27.759Z,19.33
2019-01-16T14:07:13.864Z,18.37
2019-01-16T14:10:04.143Z,21.30
2019-01-16T14:13:03.717Z,19.80
2019-01-16T14:15:48.506Z,20.90
2019-01-16T14:18:34.643Z,19.33
2019-01-16T14:21:40.303Z,20.37
2019-01-16T14:24:27.950Z,21.70
2019-01-16T14:27:09.083Z,21.57
2019-01-16T14:29:59.046Z,21.93
2019-01-16T14:32:47.541Z,21.20
2019-01-16T14:35:41.446Z,21.77
2019-01-16T14:38:27.502Z,22.13
2019-01-16T14:41:13.451Z,22.10
2019-01-16T14:44:04.119Z,20.60
2019-01-16T14:46:54.334Z,20.90
2019-01-16T14:49:42.658Z,19.83
2019-01-16T14:52:23.449Z,20.40
2019-01-16T14:55:23.322Z,20.20
2019-01-16T14:58:16.597Z,20.13
2019-01-16T15:01:04.552Z,20.17
2019-01-16T15:03:55.303Z,19.67
2019-01-16T15:06:39.989Z,19.67
2019-01-16T15:09:27.944Z,19.33
2019-01-16T15:12:21.189Z,19.00
2019-01-16T15:15:10.259Z,18.40
2019-01-16T15:18:15.625Z,18.30
2019-01-16T15:20:54.422Z,16.87
2019-01-16T15:23:33.222Z,17.33
2019-01-16T15:26:20.923Z,18.40
2019-01-16T15:29:03.661Z,17.43
2019-01-16T15:31:47.190Z,18.63
2019-01-16T15:34:37.505Z,19.07
2019-01-16T15:37:34.004Z,18.37
2019-01-16T15:40:27.268Z,19.60
2019-01-16T15:43:06.794Z,19.20
2019-01-16T15:45:48.072Z,19.40
2019-01-16T15:48:36.606Z,19.87
2019-01-16T15:51:22.665Z,18.93
2019-01-16T15:54:12.958Z,18.33
2019-01-16T15:57:09.550Z,18.27
2019-01-16T16:00:08.938Z,17.90
2019-01-16T16:03:08.566Z,18.23
2019-01-16T16:05:54.466Z,16.70
2019-01-16T16:08:53.772Z,16.87
2019-01-16T16:11:59.390Z,17.00
2019-01-16T16:14:45.408Z,16.77
2019-01-16T16:17:33.199Z,14.80
2019-01-16T16:20:23.638Z,15.37
2019-01-16T16:23:31.790Z,15.33
2019-01-16T16:26:19.426Z,14.70
2019-01-16T16:29:03.158Z,15.73
2019-01-16T16:31:49.297Z,16.03
2019-01-16T16:34:30.683Z,15.20
2019-01-16T16:37:26.620Z,14.97
2019-01-16T16:40:02.138Z,15.40
2019-01-16T16:42:48.377Z,16.17
2019-01-16T16:45:34.314Z,15.97
2019-01-16T16:48:21.377Z,15.83
2019-01-16T16:50:59.000Z,15.43
2019-01-16T16:53:58.946Z,17.67
2019-01-16T16:56:45.658Z,16.43
2019-01-16T16:59:33.296Z,16.87
2019-01-16T17:02:14.554Z,16.60
2019-01-16T17:04:57.642Z,16.77
2019-01-16T17:08:00.247Z,15.83
2019-01-16T17:10:53.890Z,15.83
2019-01-16T17:13:47.615Z,16.10
2019-01-16T17:16:23.055Z,16.17
2019-01-16T17:19:16.252Z,16.17
2019-01-16T17:22:13.692Z,16.50
2019-01-16T17:25:02.708Z,17.37
2019-01-16T17:27:52.962Z,16.93
2019-01-16T17:30:43.882Z,17.60
2019-01-16T17:33:22.584Z,17.57
2019-01-16T17:36:15.822Z,19.07
2019-01-16T17:38:57.175Z,17.13
2019-01-16T17:41:34.462Z,19.17
2019-01-16T17:44:22.151Z,18.43
2019-01-16T17:47:21.844Z,20.17
2019-01-16T17:50:18.304Z,20.30
2019-01-16T17:53:05.922Z,18.20
2019-01-16T17:55:55.649Z,19.57
2019-01-16T17:58:58.173Z,20.27
2019-01-16T18:01:48.734Z,19.33
2019-01-16T18:04:27.216Z,19.77
2019-01-16T18:07:29.702Z,20.07
2019-01-16T18:10:13.186Z,19.63
2019-01-16T18:13:03.578Z,22.20
2019-01-16T18:15:51.247Z,20.63
2019-01-16T18:18:35.249Z,21.00
2019-01-16T18:21:28.366Z,22.10
2019-01-16T18:24:30.761Z,20.67
2019-01-16T18:27:17.070Z,20.53
2019-01-16T18:30:03.101Z,22.27
2019-01-16T18:32:50.729Z,21.47
2019-01-16T18:35:41.462Z,21.40
2019-01-16T18:38:25.124Z,22.27
2019-01-16T18:41:12.146Z,21.07
2019-01-16T18:43:50.879Z,21.97
2019-01-16T18:46:44.043Z,24.10
2019-01-16T18:49:37.242Z,24.27
2019-01-16T18:52:27.562Z,23.90
2019-01-16T18:55:20.999Z,23.20
2019-01-16T18:58:04.653Z,23.93
2019-01-16T19:00:50.573Z,22.97
2019-01-16T19:03:36.810Z,23.37
2019-01-16T19:06:23.014Z,23.00
2019-01-16T19:09:13.388Z,21.57
2019-01-16T19:11:59.179Z,23.90
2019-01-16T19:14:46.779Z,21.97
2019-01-16T19:17:27.638Z,21.97
2019-01-16T19:20:13.505Z,23.87
2019-01-16T19:23:03.752Z,23.90
2019-01-16T19:26:00.955Z,24.27
2019-01-16T19:28:47.149Z,26.57
2019-01-16T19:31:34.762Z,25.30
2019-01-16T19:34:25.181Z,25.93
2019-01-16T19:37:12.773Z,27.03
2019-01-16T19:39:51.763Z,28.43
2019-01-16T19:42:44.899Z,27.67
2019-01-16T19:45:44.532Z,30.07
2019-01-16T19:48:44.102Z,30.80
2019-01-16T19:51:24.191Z,28.10
2019-01-16T19:54:10.059Z,28.73
2019-01-16T19:56:56.022Z,28.03
2019-01-16T19:59:49.681Z,28.00
2019-01-16T20:02:35.792Z,27.10
2019-01-16T20:05:27.838Z,25.77
2019-01-16T20:08:11.280Z,27.73
2019-01-16T20:10:49.741Z,26.00
2019-01-16T20:13:37.456Z,24.73
2019-01-16T20:16:23.257Z,24.30
2019-01-16T20:19:13.295Z,26.07
2019-01-16T20:21:51.711Z,25.30
2019-01-16T20:24:42.211Z,23.93
2019-01-16T20:27:44.729Z,23.90
2019-01-16T20:30:27.302Z,22.43
2019-01-16T20:33:20.666Z,23.47
2019-01-16T20:36:08.290Z,25.17
2019-01-16T20:38:58.725Z,24.77
2019-01-16T20:41:49.007Z,25.50
2019-01-16T20:44:34.814Z,23.40
2019-01-16T20:47:25.430Z,23.93
2019-01-16T20:50:11.345Z,24.50
2019-01-16T20:52:58.982Z,24.80
2019-01-16T20:55:46.596Z,25.70
2019-01-16T20:58:52.342Z,24.73
2019-01-16T21:01:48.709Z,22.97
2019-01-16T21:04:34.628Z,22.40
2019-01-16T21:07:11.945Z,24.07
2019-01-16T21:09:59.668Z,24.40
2019-01-16T21:12:48.086Z,23.43
2019-01-16T21:15:37.890Z,23.50
2019-01-16T21:18:31.095Z,19.40
2019-01-16T21:21:17.208Z,11.07
2019-01-16T21:23:54.915Z,6.03
2019-01-16T21:26:45.455Z,5.07
2019-01-16T21:29:35.952Z,3.23
2019-01-16T21:32:17.418Z,2.37
2019-01-16T21:34:54.180Z,2.70
2019-01-16T21:37:44.586Z,2.00
2019-01-16T21:40:32.660Z,3.30
2019-01-16T21:43:12.714Z,3.20
2019-01-16T21:45:58.598Z,3.13
2019-01-16T21:48:39.735Z,2.80
2019-01-16T21:51:45.242Z,2.53
2019-01-16T21:54:21.192Z,2.60
2019-01-16T21:57:14.908Z,2.60
2019-01-16T22:00:02.538Z,3.40
2019-01-16T22:02:50.163Z,2.60
2019-01-16T22:05:43.774Z,3.20
2019-01-16T22:08:19.098Z,2.77
2019-01-16T22:11:12.378Z,2.70
2019-01-16T22:13:48.107Z,3.37
2019-01-16T22:16:25.055Z,3.07
2019-01-16T22:19:15.266Z,3.47
2019-01-16T22:22:05.602Z,2.90
2019-01-16T22:24:51.768Z,3.20
2019-01-16T22:27:54.021Z,2.80
2019-01-16T22:30:52.940Z,3.30
2019-01-16T22:33:40.554Z,3.50
2019-01-16T22:36:40.072Z,2.60
2019-01-16T22:39:30.242Z,3.10
2019-01-16T22:42:26.438Z,2.57
2019-01-16T22:45:05.945Z,2.53
2019-01-16T22:47:53.543Z,2.60
2019-01-16T22:50:38.554Z,2.93
2019-01-16T22:53:34.858Z,2.20
2019-01-16T22:56:20.890Z,2.77
2019-01-16T22:59:10.326Z,2.50
2019-01-16T23:01:54.902Z,3.27
2019-01-16T23:04:41.134Z,3.00
2019-01-16T23:07:27.330Z,2.60
2019-01-16T23:10:07.088Z,2.30
2019-01-16T23:12:53.294Z,2.60
2019-01-16T23:15:47.507Z,3.00
2019-01-16T23:18:35.134Z,2.83
2019-01-16T23:21:09.755Z,2.97
2019-01-16T23:23:59.959Z,2.60
2019-01-16T23:26:59.455Z,2.97
2019-01-16T23:29:50.443Z,3.00
2019-01-16T23:32:41.340Z,2.70
2019-01-16T23:35:19.983Z,2.90
2019-01-16T23:38:22.450Z,2.97
2019-01-16T23:41:04.589Z,2.70
2019-01-16T23:44:06.498Z,3.47
2019-01-16T23:46:57.649Z,2.67
2019-01-16T23:49:45.232Z,3.20
2019-01-16T23:52:19.333Z,3.37
2019-01-16T23:55:06.925Z,4.17
2019-01-16T23:57:52.845Z,3.80
